Nearby METAR Reports

 

KBED - Bedford, Massachusetts, USA
Distance from station: ENE 12mi, 20km
Updated: Fri, 18-Jun-2021 3:51pm EDT
Clear
Clear
 Wind from SSW
Wind: SSW 12 mph , 19 km/h
Temperature: 82°F , 28°C
Dew Point: 52°F , 11°C
Humidity: 35%
Barometer: 29.88 inHg , 1011.9 hPa
Clouds: Clear
Visibility: 10 miles , 16 km
2021/06/18 19:51 KBED 181951Z 20010KT 10SM CLR 28/11 A2988 RMK AO2 SLP128 T02780106
KFIT - Fitchburg, Massachusetts, USA
Distance from station: NW 15mi, 24km
Updated: Fri, 18-Jun-2021 3:52pm EDT
Clear
Clear
 Wind from W
Wind: W 13 mph , 20 km/h, Gust: 20 mph , 31 km/h
Temperature: 82°F , 28°C
Dew Point: 48°F , 9°C
Humidity: 30%
Barometer: 29.89 inHg , 1012.2 hPa
Clouds: Clear
Visibility: 10 miles , 16 km
2021/06/18 19:52 KFIT 181952Z AUTO 27011G17KT 230V290 10SM CLR 28/09 A2989 RMK AO2 SLP119 T02830094 TSNO
 
KORH - Worcester, Massachusetts, USA
Distance from station: WSW 20mi, 32km
Updated: Fri, 18-Jun-2021 3:54pm EDT
Clear
Clear
 Wind from SW
Wind: SW 13 mph , 20 km/h, Gust: 21 mph , 33 km/h
Temperature: 79°F , 26°C
Dew Point: 46°F , 8°C
Humidity: 32%
Barometer: 29.92 inHg , 1013.2 hPa
Clouds: Clear
Visibility: 10 miles , 16 km
2021/06/18 19:54 KORH 181954Z 23011G18KT 10SM CLR 26/08 A2992 RMK AO2 SLP130 T02610083
KOWD - Norwood, Massachusetts, USA
Distance from station: SE 24mi, 39km
Updated: Fri, 18-Jun-2021 3:53pm EDT
Clear
Clear
 Wind from WSW
Wind: WSW 9 mph , 15 km/h
Temperature: 82°F , 28°C
Dew Point: 48°F , 9°C
Humidity: 30%
Barometer: 29.89 inHg , 1012.2 hPa
Clouds: Clear
Visibility: 10 miles , 16 km
2021/06/18 19:53 KOWD 181953Z 24008KT 10SM CLR 28/09 A2989 RMK AO2 SLP122 T02830089
 
KMQE - East Milton, Massachusetts, USA
Distance from station: ESE 25mi, 40km
Updated: Fri, 18-Jun-2021 3:51pm EDT

 Wind from SW
Wind: SW 17 mph , 28 km/h, Gust: 22 mph , 35 km/h
Temperature: 81°F , 27°C
Dew Point: 52°F , 11°C
Humidity: 37%
Barometer: 29.90 inHg , 1012.5 hPa
2021/06/18 19:51 KMQE 181951Z AUTO 22015G19KT 27/11 A2990 RMK AO1 SLP133 T02720106
KASH - Nashua/Boire Fld, New Hampshire, USA
Distance from station: N 26mi, 42km
Updated: Fri, 18-Jun-2021 3:56pm EDT
Clear
Clear
 Wind from WSW
Wind: WSW 10 mph , 17 km/h
Temperature: 82°F , 28°C
Dew Point: 50°F , 10°C
Humidity: 32%
Barometer: 29.88 inHg , 1011.9 hPa
Clouds: Clear
Visibility: 10 miles , 16 km
2021/06/18 19:56 KASH 181956Z 25009KT 220V280 10SM CLR 28/10 A2988 RMK AO2 SLP121 T02780100 PNO $
 
KBOS - Boston, Massachusetts, USA
Distance from station: E 26mi, 42km
Updated: Fri, 18-Jun-2021 3:54pm EDT
Mostly cloudy
Mostly cloudy
 Wind from SSW
Wind: SSW 9 mph , 15 km/h, Gust: 21 mph , 33 km/h
Temperature: 84°F , 29°C
Dew Point: 48°F , 9°C
Humidity: 29%
Barometer: 29.89 inHg , 1012.2 hPa
Clouds: Mostly cloudy
Visibility: 10 miles , 16 km
Cloud details: Partly cloudy 22000 ft
Mostly cloudy 25000 ft
2021/06/18 19:54 KBOS 181954Z 21008G18KT 10SM SCT220 BKN250 29/09 A2989 RMK AO2 SLP120 T02890089 $
KLWM - Lawrence, Massachusetts, USA
Distance from station: NE 29mi, 47km
Updated: Fri, 18-Jun-2021 3:54pm EDT
Clear
Clear
 Wind from SW
Wind: SW 7 mph , 11 km/h, Gust: 21 mph , 33 km/h
Temperature: 82°F , 28°C
Dew Point: 46°F , 8°C
Humidity: 28%
Barometer: 29.89 inHg , 1012.2 hPa
Clouds: Clear
Visibility: 10 miles , 16 km
2021/06/18 19:54 KLWM 181954Z AUTO 23006G18KT 10SM CLR 28/08 A2989 RMK AO2 SLP122 T02780083
 
KBVY - Beverly, Massachusetts, USA
Distance from station: ENE 33mi, 54km
Updated: Fri, 18-Jun-2021 3:53pm EDT
Few Clouds
Few Clouds
 Wind from SSW
Wind: SSW 10 mph , 17 km/h
Temperature: 82°F , 28°C
Dew Point: 54°F , 12°C
Humidity: 37%
Barometer: 29.87 inHg , 1011.5 hPa
Clouds: Few Clouds
Visibility: 10 miles , 16 km
Cloud details: Few Clouds 100 ft
2021/06/18 19:53 KBVY 181953Z 20009KT 10SM FEW001 28/12 A2987 RMK AO2 SLP111 T02780122
KSFZ - Pawtucket, Rhode Island, USA
Distance from station: S 34mi, 54km
Updated: Fri, 18-Jun-2021 3:56pm EDT
Clear
Clear
 Wind from varies
Wind: varies 7 mph , 11 km/h
Temperature: 79°F , 26°C
Dew Point: 52°F , 11°C
Humidity: 39%
Barometer: 29.92 inHg , 1013.2 hPa
Clouds: Clear
Visibility: 10 miles , 16 km
2021/06/18 19:56 KSFZ 181956Z AUTO VRB06KT 10SM CLR 26/11 A2992 RMK AO2 SLP137 T02610106 $
 
KAFN - Jaffrey, New Hampshire, USA
Distance from station: NW 36mi, 59km
Updated: Fri, 18-Jun-2021 3:52pm EDT
Clear
Clear
 Wind from S
Wind: S 9 mph , 15 km/h, Gust: 20 mph , 31 km/h
Temperature: 81°F , 27°C
Dew Point: 48°F , 9°C
Humidity: 32%
Barometer: 29.91 inHg , 1012.9 hPa
Clouds: Clear
Visibility: 10 miles , 16 km
2021/06/18 19:52 KAFN 181952Z AUTO 18008G17KT 10SM CLR 27/09 A2991 RMK AO2 SLP129 T02720089 TSNO
KMHT - Manchester, New Hampshire, USA
Distance from station: N 37mi, 59km
Updated: Fri, 18-Jun-2021 3:53pm EDT
Mostly cloudy
Mostly cloudy
 Wind from varies
Wind: varies 7 mph , 11 km/h
Temperature: 82°F , 28°C
Dew Point: 45°F , 7°C
Humidity: 26%
Barometer: 29.86 inHg , 1011.2 hPa
Clouds: Mostly cloudy
Visibility: 10 miles , 16 km
Cloud details: Few Clouds 10000 ft
Mostly cloudy 23000 ft
2021/06/18 19:53 KMHT 181953Z VRB06KT 10SM FEW100 BKN230 28/07 A2986 RMK AO2 SLP119 T02830072
 
KORE - Orange, Massachusetts, USA
Distance from station: WNW 40mi, 65km
Updated: Fri, 18-Jun-2021 3:52pm EDT
Clear
Clear
 Wind from WSW
Wind: WSW 8 mph , 13 km/h
Temperature: 82°F , 28°C
Dew Point: 46°F , 8°C
Humidity: 28%
Barometer: 29.90 inHg , 1012.5 hPa
Clouds: Clear
Visibility: 10 miles , 16 km
2021/06/18 19:52 KORE 181952Z AUTO 24007KT 10SM CLR 28/08 A2990 RMK AO2 SLP123 T02830078
KTAN - Taunton, Massachusetts, USA
Distance from station: SE 45mi, 72km
Updated: Fri, 18-Jun-2021 3:52pm EDT
Clear
Clear
 Wind from SSW
Wind: SSW 12 mph , 19 km/h, Gust: 23 mph , 37 km/h
Temperature: 81°F , 27°C
Dew Point: 48°F , 9°C
Humidity: 32%
Barometer: 29.91 inHg , 1012.9 hPa
Clouds: Clear
Visibility: 10 miles , 16 km
2021/06/18 19:52 KTAN 181952Z AUTO 20010G20KT 160V230 10SM CLR 27/09 A2991 RMK AO2 SLP129 T02720094
 
KPVD - Providence/Green, Rhode Island, USA
Distance from station: S 48mi, 77km
Updated: Fri, 18-Jun-2021 3:51pm EDT
Clear
Clear
 Wind from SSW
Wind: SSW 16 mph , 26 km/h
Temperature: 81°F , 27°C
Dew Point: 48°F , 9°C
Humidity: 32%
Barometer: 29.92 inHg , 1013.2 hPa
Clouds: Clear
Visibility: 10 miles , 16 km
2021/06/18 19:51 KPVD 181951Z 20014KT 10SM CLR 27/09 A2992 RMK AO2 SLP130 T02720094
KGHG - Marshfield, Massachusetts, USA
Distance from station: ESE 49mi, 79km
Updated: Fri, 18-Jun-2021 3:55pm EDT
Clear
Clear
 Wind from SW
Wind: SW 12 mph , 19 km/h, Gust: 18 mph , 30 km/h
Temperature: 81°F , 27°C
Dew Point: 48°F , 9°C
Humidity: 32%
Barometer: 29.90 inHg , 1012.5 hPa
Clouds: Clear
Visibility: 10 miles , 16 km
2021/06/18 19:55 KGHG 181955Z AUTO 22010G16KT 180V260 10SM CLR 27/09 A2990 RMK AO2
 
KEEN - Keene/Dillant, New Hampshire, USA
Distance from station: NW 50mi, 81km
Updated: Fri, 18-Jun-2021 3:56pm EDT
Clear
Clear
 Wind from SSW
Wind: SSW 10 mph , 17 km/h
Temperature: 82°F , 28°C
Dew Point: 52°F , 11°C
Humidity: 35%
Barometer: 29.87 inHg , 1011.5 hPa
Clouds: Clear
Visibility: 10 miles , 16 km
2021/06/18 19:56 KEEN 181956Z AUTO 20009KT 160V230 10SM CLR 28/11 A2987 RMK AO2 SLP119 T02780111 $